createdAt,value
2019-03-26T00:00:08.262Z,10.87
2019-03-26T00:02:56.521Z,11.20
2019-03-26T00:05:44.341Z,10.90
2019-03-26T00:08:32.170Z,12.33
2019-03-26T00:11:19.790Z,11.23
2019-03-26T00:14:07.753Z,10.80
2019-03-26T00:16:55.501Z,12.20
2019-03-26T00:19:43.093Z,11.50
2019-03-26T00:22:31.068Z,11.30
2019-03-26T00:25:18.894Z,12.53
2019-03-26T00:28:06.917Z,12.53
2019-03-26T00:30:54.542Z,11.80
2019-03-26T00:33:42.362Z,12.37
2019-03-26T00:36:30.437Z,11.70
2019-03-26T00:39:18.218Z,12.33
2019-03-26T00:42:05.869Z,11.30
2019-03-26T00:44:53.539Z,13.07
2019-03-26T00:47:41.217Z,13.53
2019-03-26T00:50:29.079Z,12.13
2019-03-26T00:53:16.657Z,12.10
2019-03-26T00:56:04.452Z,12.63
2019-03-26T00:58:52.463Z,12.47
2019-03-26T01:01:40.333Z,11.87
2019-03-26T01:04:33.156Z,11.93
2019-03-26T01:07:17.593Z,11.87
2019-03-26T01:10:07.461Z,12.47
2019-03-26T01:12:56.077Z,12.70
2019-03-26T01:15:44.016Z,12.67
2019-03-26T01:18:32.023Z,11.73
2019-03-26T01:21:19.673Z,12.17
2019-03-26T01:24:07.581Z,12.93
2019-03-26T01:26:55.353Z,12.63
2019-03-26T01:29:43.189Z,13.67
2019-03-26T01:32:30.914Z,12.10
2019-03-26T01:35:18.868Z,13.17
2019-03-26T01:38:06.624Z,14.40
2019-03-26T01:40:54.434Z,13.60
2019-03-26T01:43:42.367Z,13.23
2019-03-26T01:46:30.161Z,12.57
2019-03-26T01:49:17.968Z,13.43
2019-03-26T01:52:05.725Z,12.50
2019-03-26T01:54:53.633Z,13.10
2019-03-26T01:57:41.579Z,14.27
2019-03-26T02:00:29.289Z,15.97
2019-03-26T02:03:16.989Z,14.10
2019-03-26T02:06:04.961Z,14.60
2019-03-26T02:08:53.179Z,16.10
2019-03-26T02:11:41.064Z,14.90
2019-03-26T02:14:28.950Z,14.80
2019-03-26T02:17:16.642Z,14.40
2019-03-26T02:20:06.590Z,15.13
2019-03-26T02:22:54.193Z,13.77
2019-03-26T02:25:41.900Z,15.10
2019-03-26T02:28:29.532Z,15.03
2019-03-26T02:31:17.506Z,14.67
2019-03-26T02:34:05.338Z,14.30
2019-03-26T02:36:53.101Z,14.47
2019-03-26T02:39:40.686Z,13.13
2019-03-26T02:42:28.726Z,14.33
2019-03-26T02:45:16.517Z,14.50
2019-03-26T02:48:04.281Z,13.93
2019-03-26T02:50:52.125Z,14.20
2019-03-26T02:53:39.744Z,13.97
2019-03-26T02:56:27.384Z,14.33
2019-03-26T02:59:15.089Z,13.57
2019-03-26T03:02:02.798Z,12.73
2019-03-26T03:04:50.700Z,13.00
2019-03-26T03:07:38.531Z,14.17
2019-03-26T03:10:26.476Z,13.67
2019-03-26T03:13:14.240Z,12.97
2019-03-26T03:16:02.121Z,13.63
2019-03-26T03:18:49.778Z,12.67
2019-03-26T03:21:37.629Z,13.30
2019-03-26T03:24:25.403Z,12.23
2019-03-26T03:27:13.316Z,12.60
2019-03-26T03:30:00.979Z,13.60
2019-03-26T03:32:48.745Z,14.73
2019-03-26T03:35:51.248Z,13.57
2019-03-26T03:38:26.707Z,13.63
2019-03-26T03:41:14.512Z,12.87
2019-03-26T03:44:02.245Z,14.53
2019-03-26T03:46:50.350Z,13.47
2019-03-26T03:49:38.387Z,13.43
2019-03-26T03:52:28.689Z,13.83
2019-03-26T03:55:16.864Z,12.97
2019-03-26T03:58:04.972Z,14.03
2019-03-26T04:00:52.648Z,13.67
2019-03-26T04:03:40.517Z,15.20
2019-03-26T04:06:28.457Z,15.20
2019-03-26T04:09:16.060Z,14.90
2019-03-26T04:12:04.095Z,14.13
2019-03-26T04:14:51.626Z,14.93
2019-03-26T04:17:39.520Z,15.10
2019-03-26T04:20:27.467Z,15.70
2019-03-26T04:23:15.534Z,16.53
2019-03-26T04:26:03.173Z,16.27
2019-03-26T04:28:50.877Z,17.23
2019-03-26T04:31:38.806Z,16.10
2019-03-26T04:34:26.677Z,16.00
2019-03-26T04:37:14.332Z,17.00
2019-03-26T04:40:01.990Z,18.33
2019-03-26T04:42:49.536Z,16.07
2019-03-26T04:45:37.592Z,17.43
2019-03-26T04:48:25.429Z,18.27
2019-03-26T04:51:13.188Z,17.23
2019-03-26T04:54:01.075Z,18.53
2019-03-26T04:56:48.672Z,17.33
2019-03-26T04:59:36.348Z,17.77
2019-03-26T05:02:24.229Z,18.83
2019-03-26T05:05:12.645Z,19.13
2019-03-26T05:08:00.492Z,19.47
2019-03-26T05:10:49.291Z,26.10
2019-03-26T05:13:37.172Z,20.37
2019-03-26T05:16:25.047Z,19.03
2019-03-26T05:19:12.976Z,18.10
2019-03-26T05:22:00.543Z,17.97
2019-03-26T05:24:48.497Z,16.70
2019-03-26T05:27:45.291Z,16.87
2019-03-26T05:30:26.291Z,17.80
2019-03-26T05:33:13.904Z,18.27
2019-03-26T05:36:01.562Z,16.97
2019-03-26T05:38:49.412Z,17.30
2019-03-26T05:41:37.428Z,19.07
2019-03-26T05:44:25.443Z,17.83
2019-03-26T05:47:13.048Z,16.47
2019-03-26T05:50:00.660Z,18.67
2019-03-26T05:52:48.591Z,18.73
2019-03-26T05:55:36.392Z,17.90
2019-03-26T05:58:24.131Z,17.50
2019-03-26T06:01:13.299Z,19.93
2019-03-26T06:04:01.515Z,17.73
2019-03-26T06:09:36.404Z,17.77
2019-03-26T06:12:24.284Z,18.50
2019-03-26T06:15:12.662Z,19.17
2019-03-26T06:18:00.616Z,18.57
2019-03-26T06:20:48.620Z,31.07
2019-03-26T06:23:36.279Z,19.13
2019-03-26T06:26:24.020Z,18.83
2019-03-26T06:29:11.691Z,15.70
2019-03-26T06:31:59.504Z,15.47
2019-03-26T06:34:47.404Z,15.27
2019-03-26T06:37:35.371Z,16.70
2019-03-26T06:40:23.182Z,15.97
2019-03-26T06:43:11.084Z,16.17
2019-03-26T06:45:58.784Z,15.97
2019-03-26T06:48:46.369Z,16.10
2019-03-26T06:51:33.896Z,16.07
2019-03-26T06:54:21.597Z,16.23
2019-03-26T06:57:09.129Z,15.03
2019-03-26T06:59:56.768Z,15.10
2019-03-26T07:02:46.250Z,14.80
2019-03-26T07:05:33.961Z,13.33
2019-03-26T07:08:22.133Z,13.03
2019-03-26T07:11:09.708Z,12.27
2019-03-26T07:13:57.682Z,11.87
2019-03-26T07:16:45.619Z,12.30
2019-03-26T07:19:33.696Z,11.33
2019-03-26T07:22:21.610Z,10.53
2019-03-26T07:25:10.323Z,12.10
2019-03-26T07:27:57.925Z,10.57
2019-03-26T07:30:46.897Z,11.10
2019-03-26T07:33:34.444Z,10.50
2019-03-26T07:36:22.380Z,10.97
2019-03-26T07:39:10.323Z,10.50
2019-03-26T07:41:58.233Z,10.37
2019-03-26T07:44:46.214Z,10.67
2019-03-26T07:47:34.235Z,10.83
2019-03-26T07:50:22.203Z,10.53
2019-03-26T07:53:09.869Z,9.73
2019-03-26T07:55:57.764Z,10.57
2019-03-26T07:58:45.516Z,10.40
2019-03-26T08:01:33.364Z,9.70
2019-03-26T08:04:21.502Z,9.63
2019-03-26T08:07:09.327Z,10.23
2019-03-26T08:09:57.236Z,9.50
2019-03-26T08:12:45.228Z,9.50
2019-03-26T08:15:33.083Z,9.53
2019-03-26T08:18:21.014Z,10.63
2019-03-26T08:21:08.716Z,9.93
2019-03-26T08:23:56.494Z,8.77
2019-03-26T08:26:44.620Z,9.20
2019-03-26T08:29:32.473Z,8.40
2019-03-26T08:32:20.212Z,9.13
2019-03-26T08:35:08.081Z,8.60
2019-03-26T08:37:55.699Z,7.57
2019-03-26T08:40:43.303Z,7.43
2019-03-26T08:43:30.887Z,7.43
2019-03-26T08:46:18.811Z,6.90
2019-03-26T08:49:06.765Z,6.23
2019-03-26T08:51:54.593Z,6.90
2019-03-26T08:54:42.157Z,7.53
2019-03-26T08:57:30.296Z,6.20
2019-03-26T09:00:18.203Z,6.90
2019-03-26T09:03:05.729Z,5.53
2019-03-26T09:05:53.656Z,5.33
2019-03-26T09:08:41.641Z,6.60
2019-03-26T09:11:29.755Z,6.20
2019-03-26T09:14:17.383Z,6.40
2019-03-26T09:17:05.192Z,6.00
2019-03-26T09:19:53.144Z,6.50
2019-03-26T09:22:40.929Z,6.37
2019-03-26T09:25:28.868Z,6.33
2019-03-26T09:28:16.448Z,6.40
2019-03-26T09:31:04.248Z,6.70
2019-03-26T09:33:51.979Z,6.57
2019-03-26T09:36:39.896Z,6.53
2019-03-26T09:39:27.703Z,6.90
2019-03-26T09:42:15.527Z,6.30
2019-03-26T09:45:05.268Z,5.80
2019-03-26T09:47:53.012Z,6.43
2019-03-26T09:50:40.892Z,5.87
2019-03-26T09:53:28.653Z,5.13
2019-03-26T09:56:28.297Z,5.53
2019-03-26T09:59:05.825Z,5.40
2019-03-26T10:01:53.520Z,4.80
2019-03-26T10:04:41.284Z,5.40
2019-03-26T10:07:29.182Z,6.17
2019-03-26T10:10:17.586Z,5.60
2019-03-26T10:13:05.260Z,4.60
2019-03-26T10:15:53.221Z,4.90
2019-03-26T10:18:41.295Z,5.27
2019-03-26T10:21:29.052Z,5.47
2019-03-26T10:24:16.804Z,4.73
2019-03-26T10:27:04.708Z,5.10
2019-03-26T10:29:52.512Z,4.70
2019-03-26T10:32:40.439Z,5.00
2019-03-26T10:35:28.225Z,3.90
2019-03-26T10:38:16.060Z,4.70
2019-03-26T10:41:04.088Z,4.53
2019-03-26T10:43:51.960Z,3.90
2019-03-26T10:46:39.766Z,4.00
2019-03-26T10:49:27.452Z,4.30
2019-03-26T10:52:15.043Z,4.33
2019-03-26T10:55:02.854Z,4.10
2019-03-26T10:57:50.813Z,4.17
2019-03-26T11:00:38.617Z,4.03
2019-03-26T11:03:26.361Z,3.67
2019-03-26T11:06:14.027Z,4.63
2019-03-26T11:09:01.610Z,4.13
2019-03-26T11:11:49.420Z,4.10
2019-03-26T11:14:37.120Z,3.97
2019-03-26T11:17:25.025Z,4.57
2019-03-26T11:20:13.124Z,4.63
2019-03-26T11:23:00.760Z,4.87
2019-03-26T11:25:48.493Z,4.87
2019-03-26T11:28:36.352Z,5.13
2019-03-26T11:31:24.027Z,4.50
2019-03-26T11:34:12.084Z,4.77
2019-03-26T11:36:59.990Z,5.07
2019-03-26T11:39:47.736Z,4.40
2019-03-26T11:42:35.646Z,4.10
2019-03-26T11:45:23.440Z,3.80
2019-03-26T11:48:11.090Z,4.23
2019-03-26T11:50:59.047Z,3.90
2019-03-26T11:53:46.825Z,3.30
2019-03-26T11:56:34.402Z,3.30
2019-03-26T11:59:22.188Z,3.90
2019-03-26T12:02:11.168Z,3.70
2019-03-26T12:04:59.113Z,3.53
2019-03-26T12:07:46.920Z,4.50
2019-03-26T12:10:34.844Z,4.27
2019-03-26T12:13:22.488Z,4.37
2019-03-26T12:16:10.630Z,4.10
2019-03-26T12:18:58.633Z,3.80
2019-03-26T12:21:46.531Z,3.00
2019-03-26T12:24:34.237Z,2.97
2019-03-26T12:27:22.223Z,3.30
2019-03-26T12:30:10.753Z,3.13
2019-03-26T12:32:58.585Z,3.60
2019-03-26T12:35:46.440Z,3.40
2019-03-26T12:38:34.345Z,3.30
2019-03-26T12:41:22.156Z,3.33
2019-03-26T12:44:09.801Z,3.73
2019-03-26T12:46:58.516Z,3.20
2019-03-26T12:49:46.372Z,3.73
2019-03-26T12:52:33.927Z,4.23
2019-03-26T12:55:21.657Z,4.30
2019-03-26T12:58:09.312Z,4.70
2019-03-26T13:00:57.216Z,5.30
2019-03-26T13:03:45.121Z,5.73
2019-03-26T13:06:32.877Z,5.23
2019-03-26T13:09:20.785Z,5.43
2019-03-26T13:12:08.662Z,5.67
2019-03-26T13:14:59.308Z,5.47
2019-03-26T13:17:46.084Z,6.07
2019-03-26T13:20:33.851Z,5.27
2019-03-26T13:23:21.767Z,5.17
2019-03-26T13:26:09.504Z,5.27
2019-03-26T13:28:57.141Z,5.00
2019-03-26T13:31:44.863Z,6.03
2019-03-26T13:34:32.648Z,5.83
2019-03-26T13:37:21.780Z,6.13
2019-03-26T13:40:10.241Z,6.20
2019-03-26T13:42:58.172Z,6.30
2019-03-26T13:45:46.092Z,5.40
2019-03-26T13:48:34.132Z,5.87
2019-03-26T13:51:21.678Z,5.90
2019-03-26T13:54:09.284Z,6.23
2019-03-26T13:56:57.240Z,5.73
2019-03-26T13:59:44.922Z,5.27
2019-03-26T14:02:32.578Z,4.97
2019-03-26T14:05:25.560Z,6.57
2019-03-26T14:08:13.844Z,6.17
2019-03-26T14:11:01.424Z,6.20
2019-03-26T14:13:49.381Z,6.60
2019-03-26T14:16:37.280Z,7.00
2019-03-26T14:19:25.036Z,5.97
2019-03-26T14:22:12.788Z,6.30
2019-03-26T14:25:00.888Z,6.23
2019-03-26T14:27:48.467Z,7.30
2019-03-26T14:30:41.320Z,6.23
2019-03-26T14:33:29.097Z,6.97
2019-03-26T14:36:16.956Z,7.50
2019-03-26T14:39:08.072Z,7.03
2019-03-26T14:41:55.773Z,6.93
2019-03-26T14:44:43.500Z,7.00
2019-03-26T14:47:31.357Z,6.10
2019-03-26T14:50:19.555Z,6.10
2019-03-26T14:53:07.092Z,6.70
2019-03-26T14:55:55.013Z,5.80
2019-03-26T14:58:42.801Z,5.93
2019-03-26T15:01:30.551Z,5.33
2019-03-26T15:04:18.377Z,5.50
2019-03-26T15:07:06.076Z,5.83
2019-03-26T15:09:53.920Z,6.57
2019-03-26T15:12:42.099Z,7.87
2019-03-26T15:15:30.009Z,8.57
2019-03-26T15:18:17.905Z,7.47
2019-03-26T15:21:05.773Z,7.57
2019-03-26T15:23:53.916Z,7.93
2019-03-26T15:26:41.996Z,8.40
2019-03-26T15:29:29.673Z,8.67
2019-03-26T15:32:17.497Z,14.47
2019-03-26T15:35:06.325Z,8.47
2019-03-26T15:37:53.876Z,9.33
2019-03-26T15:40:41.803Z,10.80
2019-03-26T15:43:29.708Z,11.37
2019-03-26T15:46:17.701Z,10.83
2019-03-26T15:49:05.580Z,11.23
2019-03-26T15:51:53.536Z,11.00
2019-03-26T15:54:41.329Z,10.27
2019-03-26T15:57:29.165Z,10.53
2019-03-26T16:00:20.004Z,10.63
2019-03-26T16:03:08.444Z,10.47
2019-03-26T16:05:55.960Z,9.60
2019-03-26T16:08:43.623Z,10.40
2019-03-26T16:11:36.087Z,10.97
2019-03-26T16:14:21.040Z,10.90
2019-03-26T16:17:08.914Z,9.90
2019-03-26T16:19:56.508Z,9.73
2019-03-26T16:22:44.507Z,9.47
2019-03-26T16:25:32.417Z,8.70
2019-03-26T16:28:20.168Z,10.03
2019-03-26T16:31:07.908Z,8.30
2019-03-26T16:33:55.620Z,10.93
2019-03-26T16:36:43.383Z,11.23
2019-03-26T16:39:31.177Z,11.50
2019-03-26T16:42:18.989Z,11.53
2019-03-26T16:45:07.071Z,11.20
2019-03-26T16:47:54.736Z,10.73
2019-03-26T16:50:42.716Z,10.47
2019-03-26T16:53:30.292Z,10.53
2019-03-26T16:56:18.325Z,9.77
2019-03-26T16:59:05.940Z,10.27
2019-03-26T17:01:53.773Z,9.87
2019-03-26T17:04:41.449Z,9.93
2019-03-26T17:07:28.957Z,9.83
2019-03-26T17:10:16.969Z,9.57
2019-03-26T17:13:04.826Z,9.73
2019-03-26T17:15:52.662Z,9.47
2019-03-26T17:18:40.300Z,9.17
2019-03-26T17:21:28.244Z,9.10
2019-03-26T17:24:16.188Z,9.83
2019-03-26T17:27:04.090Z,9.47
2019-03-26T17:29:51.912Z,10.00
2019-03-26T17:32:39.787Z,9.40
2019-03-26T17:35:27.358Z,10.03
2019-03-26T17:38:15.339Z,9.50
2019-03-26T17:41:03.229Z,9.70
2019-03-26T17:43:51.213Z,15.80
2019-03-26T17:46:39.120Z,16.97
2019-03-26T17:49:27.151Z,47.40
2019-03-26T17:52:15.244Z,18.53
2019-03-26T17:55:03.683Z,18.23
2019-03-26T17:57:51.432Z,11.53
2019-03-26T18:00:42.476Z,8.73
2019-03-26T18:03:30.343Z,8.53
2019-03-26T18:06:18.056Z,9.27
2019-03-26T18:09:06.711Z,9.20
2019-03-26T18:11:54.651Z,14.07
2019-03-26T18:14:42.826Z,9.40
2019-03-26T18:17:30.728Z,9.17
2019-03-26T18:20:31.504Z,9.83
2019-03-26T18:23:08.025Z,12.57
2019-03-26T18:25:56.147Z,10.80
2019-03-26T18:28:44.001Z,11.50
2019-03-26T18:31:31.796Z,9.20
2019-03-26T18:34:19.817Z,10.10
2019-03-26T18:37:07.588Z,10.80
2019-03-26T18:39:55.405Z,9.13
2019-03-26T18:42:44.273Z,9.37
2019-03-26T18:45:32.623Z,9.40
2019-03-26T18:48:20.533Z,9.53
2019-03-26T18:51:08.306Z,10.33
2019-03-26T18:53:56.140Z,9.93
2019-03-26T18:56:44.158Z,10.17
2019-03-26T18:59:32.037Z,9.10
2019-03-26T19:02:19.628Z,13.23
2019-03-26T19:05:08.632Z,14.00
2019-03-26T19:07:56.460Z,10.20
2019-03-26T19:10:44.106Z,10.60
2019-03-26T19:13:31.623Z,10.33
2019-03-26T19:16:19.213Z,9.80
2019-03-26T19:19:07.091Z,9.70
2019-03-26T19:21:55.149Z,9.67
2019-03-26T19:24:42.881Z,9.60
2019-03-26T19:27:30.505Z,40.47
2019-03-26T19:30:18.505Z,20.33
2019-03-26T19:33:06.659Z,12.43
2019-03-26T19:35:54.518Z,11.07
2019-03-26T19:38:42.196Z,10.50
2019-03-26T19:41:30.040Z,11.17
2019-03-26T19:44:17.788Z,12.27
2019-03-26T19:47:05.687Z,11.87
2019-03-26T19:49:53.316Z,10.50
2019-03-26T19:52:41.197Z,10.40
2019-03-26T19:55:29.048Z,11.77
2019-03-26T19:58:16.601Z,11.83
2019-03-26T20:01:04.399Z,11.73
2019-03-26T20:03:52.017Z,11.77
2019-03-26T20:06:40.034Z,12.53
2019-03-26T20:09:27.736Z,11.37
2019-03-26T20:12:15.541Z,12.00
2019-03-26T20:15:05.557Z,14.27
2019-03-26T20:17:53.639Z,14.07
2019-03-26T20:20:41.251Z,13.80
2019-03-26T20:23:29.106Z,11.23
2019-03-26T20:26:16.985Z,11.63
2019-03-26T20:29:04.950Z,11.73
2019-03-26T20:31:52.718Z,12.07
2019-03-26T20:34:40.284Z,11.63
2019-03-26T20:37:28.208Z,11.33
2019-03-26T20:40:17.005Z,11.97
2019-03-26T20:43:04.531Z,11.37
2019-03-26T20:45:52.377Z,11.87
2019-03-26T20:48:40.171Z,11.73
2019-03-26T20:51:28.262Z,12.40
2019-03-26T20:54:16.232Z,12.27
2019-03-26T20:57:05.648Z,13.00
2019-03-26T20:59:53.688Z,11.87
2019-03-26T21:02:41.753Z,12.80
2019-03-26T21:05:29.589Z,12.70
2019-03-26T21:08:17.160Z,13.17
2019-03-26T21:11:04.973Z,12.87
2019-03-26T21:13:52.792Z,12.63
2019-03-26T21:16:40.596Z,13.10
2019-03-26T21:19:28.323Z,12.70
2019-03-26T21:22:16.264Z,13.17
2019-03-26T21:25:05.111Z,11.10
2019-03-26T21:27:52.928Z,12.63
2019-03-26T21:30:40.602Z,13.50
2019-03-26T21:33:28.280Z,12.50
2019-03-26T21:36:16.384Z,12.70
2019-03-26T21:39:05.328Z,13.60
2019-03-26T21:41:52.898Z,12.73
2019-03-26T21:44:40.650Z,14.17
2019-03-26T21:47:28.764Z,15.77
2019-03-26T21:50:16.713Z,14.27
2019-03-26T21:53:04.512Z,17.00
2019-03-26T21:56:05.434Z,14.97
2019-03-26T21:58:44.831Z,14.27
2019-03-26T22:01:32.536Z,13.40
2019-03-26T22:04:20.518Z,13.90
2019-03-26T22:07:08.351Z,14.33
2019-03-26T22:09:55.993Z,15.63
2019-03-26T22:12:43.891Z,15.30
2019-03-26T22:15:31.877Z,15.20
2019-03-26T22:18:19.450Z,14.80
2019-03-26T22:21:07.306Z,14.93
2019-03-26T22:23:55.413Z,13.80
2019-03-26T22:26:43.400Z,14.40
2019-03-26T22:29:31.281Z,15.33
2019-03-26T22:32:19.320Z,15.53
2019-03-26T22:35:11.261Z,13.67
2019-03-26T22:37:59.074Z,14.63
2019-03-26T22:40:46.649Z,13.53
2019-03-26T22:43:34.489Z,14.20
2019-03-26T22:46:22.145Z,15.00
2019-03-26T22:49:10.130Z,13.13
2019-03-26T22:51:57.757Z,14.03
2019-03-26T22:54:45.683Z,13.10
2019-03-26T22:57:33.609Z,14.27
2019-03-26T23:00:21.545Z,14.23
2019-03-26T23:03:09.065Z,14.93
2019-03-26T23:05:56.830Z,13.87
2019-03-26T23:08:44.994Z,14.70
2019-03-26T23:11:33.005Z,13.83
2019-03-26T23:14:20.801Z,12.60
2019-03-26T23:17:08.689Z,13.43
2019-03-26T23:19:56.605Z,12.17
2019-03-26T23:22:44.285Z,13.03
2019-03-26T23:25:32.184Z,12.70
2019-03-26T23:28:20.138Z,11.73
2019-03-26T23:31:08.298Z,13.20
2019-03-26T23:33:55.827Z,11.97
2019-03-26T23:36:43.862Z,13.33
2019-03-26T23:39:31.574Z,12.70
2019-03-26T23:42:19.493Z,12.70
2019-03-26T23:45:08.068Z,11.40
2019-03-26T23:47:55.973Z,13.00
2019-03-26T23:50:43.754Z,12.87
2019-03-26T23:53:31.658Z,12.47
2019-03-26T23:56:19.266Z,12.97
2019-03-26T23:59:07.134Z,12.43
